sensor_id;sensor_type;location;lat;lon;timestamp;P1;durP1;ratioP1;P2;durP2;ratioP2
62256;SDS011;48240;52.962;5.790;2022-09-09T04:16:14;1.63;;;1.30;;
62256;SDS011;48240;52.962;5.790;2022-09-09T04:18:40;1.85;;;1.20;;
62256;SDS011;48240;52.962;5.790;2022-09-09T04:21:07;1.77;;;1.25;;
62256;SDS011;48240;52.962;5.790;2022-09-09T04:23:33;1.42;;;1.20;;
62256;SDS011;48240;52.962;5.790;2022-09-09T04:26:00;3.08;;;1.25;;
62256;SDS011;48240;52.962;5.790;2022-09-09T04:28:27;2.75;;;1.10;;
62256;SDS011;48240;52.962;5.790;2022-09-09T04:30:54;1.50;;;1.20;;
62256;SDS011;48240;52.962;5.790;2022-09-09T04:33:21;2.95;;;1.27;;
62256;SDS011;48240;52.962;5.790;2022-09-09T04:35:48;1.63;;;1.25;;
62256;SDS011;48240;52.962;5.790;2022-09-09T04:38:14;1.63;;;1.30;;
62256;SDS011;48240;52.962;5.790;2022-09-09T04:40:45;1.10;;;1.00;;
62256;SDS011;48240;52.962;5.790;2022-09-09T04:43:12;3.28;;;1.20;;
62256;SDS011;48240;52.962;5.790;2022-09-09T04:45:39;2.38;;;1.20;;
62256;SDS011;48240;52.962;5.790;2022-09-09T04:48:06;2.17;;;1.10;;
62256;SDS011;48240;52.962;5.790;2022-09-09T04:50:32;1.92;;;1.20;;
62256;SDS011;48240;52.962;5.790;2022-09-09T04:53:02;1.60;;;1.10;;
62256;SDS011;48240;52.962;5.790;2022-09-09T04:55:29;3.42;;;1.30;;
62256;SDS011;48240;52.962;5.790;2022-09-09T04:57:56;2.50;;;1.00;;
62256;SDS011;48240;52.962;5.790;2022-09-09T05:00:25;1.17;;;1.08;;
62256;SDS011;48240;52.962;5.790;2022-09-09T05:02:51;2.35;;;1.30;;
62256;SDS011;48240;52.962;5.790;2022-09-09T05:05:17;2.80;;;1.27;;
62256;SDS011;48240;52.962;5.790;2022-09-09T05:07:44;1.05;;;0.80;;
62256;SDS011;48240;52.962;5.790;2022-09-09T05:10:11;1.40;;;0.90;;
62256;SDS011;48240;52.962;5.790;2022-09-09T05:12:38;2.45;;;1.42;;
62256;SDS011;48240;52.962;5.790;2022-09-09T05:15:04;2.08;;;1.10;;
62256;SDS011;48240;52.962;5.790;2022-09-09T05:17:30;1.30;;;1.20;;
62256;SDS011;48240;52.962;5.790;2022-09-09T05:19:56;2.00;;;1.20;;
62256;SDS011;48240;52.962;5.790;2022-09-09T05:22:22;2.47;;;1.23;;
62256;SDS011;48240;52.962;5.790;2022-09-09T05:24:51;1.58;;;1.13;;
62256;SDS011;48240;52.962;5.790;2022-09-09T05:27:18;3.05;;;1.08;;
62256;SDS011;48240;52.962;5.790;2022-09-09T05:29:47;2.63;;;1.30;;
62256;SDS011;48240;52.962;5.790;2022-09-09T05:32:13;2.80;;;1.10;;
62256;SDS011;48240;52.962;5.790;2022-09-09T05:34:41;2.45;;;1.17;;
62256;SDS011;48240;52.962;5.790;2022-09-09T05:37:07;6.78;;;1.33;;
62256;SDS011;48240;52.962;5.790;2022-09-09T05:39:33;7.07;;;1.13;;
62256;SDS011;48240;52.962;5.790;2022-09-09T05:42:01;1.67;;;1.20;;
62256;SDS011;48240;52.962;5.790;2022-09-09T05:44:29;5.35;;;1.42;;
62256;SDS011;48240;52.962;5.790;2022-09-09T05:46:56;4.35;;;1.58;;
62256;SDS011;48240;52.962;5.790;2022-09-09T05:49:23;2.67;;;1.20;;
62256;SDS011;48240;52.962;5.790;2022-09-09T05:51:49;3.10;;;1.20;;
62256;SDS011;48240;52.962;5.790;2022-09-09T05:54:16;5.60;;;1.77;;
62256;SDS011;48240;52.962;5.790;2022-09-09T05:56:42;6.40;;;1.73;;
62256;SDS011;48240;52.962;5.790;2022-09-09T05:59:08;3.90;;;1.58;;
62256;SDS011;48240;52.962;5.790;2022-09-09T06:01:35;5.43;;;1.65;;
62256;SDS011;48240;52.962;5.790;2022-09-09T06:04:03;5.80;;;1.77;;
62256;SDS011;48240;52.962;5.790;2022-09-09T06:06:36;3.15;;;1.63;;
62256;SDS011;48240;52.962;5.790;2022-09-09T06:09:05;5.85;;;1.80;;
62256;SDS011;48240;52.962;5.790;2022-09-09T06:11:31;3.45;;;1.30;;
62256;SDS011;48240;52.962;5.790;2022-09-09T06:13:58;4.75;;;1.60;;
62256;SDS011;48240;52.962;5.790;2022-09-09T06:16:25;11.75;;;1.90;;
62256;SDS011;48240;52.962;5.790;2022-09-09T06:18:52;4.97;;;1.60;;
62256;SDS011;48240;52.962;5.790;2022-09-09T06:21:32;4.65;;;1.58;;
62256;SDS011;48240;52.962;5.790;2022-09-09T06:23:59;8.05;;;1.90;;
62256;SDS011;48240;52.962;5.790;2022-09-09T06:28:52;4.63;;;1.67;;
62256;SDS011;48240;52.962;5.790;2022-09-09T06:31:22;4.05;;;1.40;;
62256;SDS011;48240;52.962;5.790;2022-09-09T06:33:49;3.83;;;1.65;;
62256;SDS011;48240;52.962;5.790;2022-09-09T06:36:17;3.10;;;1.30;;
62256;SDS011;48240;52.962;5.790;2022-09-09T06:38:43;1.67;;;1.20;;
62256;SDS011;48240;52.962;5.790;2022-09-09T06:41:10;11.70;;;1.50;;
62256;SDS011;48240;52.962;5.790;2022-09-09T06:43:37;5.85;;;1.55;;
62256;SDS011;48240;52.962;5.790;2022-09-09T06:46:08;8.15;;;1.30;;
62256;SDS011;48240;52.962;5.790;2022-09-09T06:48:34;2.88;;;1.50;;
62256;SDS011;48240;52.962;5.790;2022-09-09T06:51:05;5.03;;;1.30;;
62256;SDS011;48240;52.962;5.790;2022-09-09T06:53:32;4.17;;;1.10;;
62256;SDS011;48240;52.962;5.790;2022-09-09T06:58:48;3.13;;;1.65;;
62256;SDS011;48240;52.962;5.790;2022-09-09T07:01:15;2.40;;;1.20;;
62256;SDS011;48240;52.962;5.790;2022-09-09T07:03:44;4.35;;;1.10;;
62256;SDS011;48240;52.962;5.790;2022-09-09T07:06:15;4.18;;;1.30;;
62256;SDS011;48240;52.962;5.790;2022-09-09T07:08:48;5.55;;;1.20;;
62256;SDS011;48240;52.962;5.790;2022-09-09T07:11:15;2.47;;;0.95;;
62256;SDS011;48240;52.962;5.790;2022-09-09T07:13:41;3.28;;;1.10;;
62256;SDS011;48240;52.962;5.790;2022-09-09T07:16:08;5.43;;;1.38;;
62256;SDS011;48240;52.962;5.790;2022-09-09T07:18:35;4.78;;;1.10;;
62256;SDS011;48240;52.962;5.790;2022-09-09T07:21:02;3.05;;;1.02;;
62256;SDS011;48240;52.962;5.790;2022-09-09T07:23:28;3.22;;;1.00;;
62256;SDS011;48240;52.962;5.790;2022-09-09T07:25:55;3.63;;;1.20;;
62256;SDS011;48240;52.962;5.790;2022-09-09T07:28:21;3.60;;;1.10;;
62256;SDS011;48240;52.962;5.790;2022-09-09T07:30:57;3.97;;;1.20;;
62256;SDS011;48240;52.962;5.790;2022-09-09T07:33:24;4.45;;;1.30;;
62256;SDS011;48240;52.962;5.790;2022-09-09T07:35:50;5.88;;;1.10;;
62256;SDS011;48240;52.962;5.790;2022-09-09T07:38:16;4.65;;;1.20;;
62256;SDS011;48240;52.962;5.790;2022-09-09T07:40:43;2.70;;;1.00;;
62256;SDS011;48240;52.962;5.790;2022-09-09T07:43:10;3.67;;;1.40;;
62256;SDS011;48240;52.962;5.790;2022-09-09T07:45:36;5.03;;;1.10;;
62256;SDS011;48240;52.962;5.790;2022-09-09T07:48:03;5.25;;;1.17;;
62256;SDS011;48240;52.962;5.790;2022-09-09T07:50:29;4.32;;;1.05;;
62256;SDS011;48240;52.962;5.790;2022-09-09T07:52:56;3.13;;;1.25;;
62256;SDS011;48240;52.962;5.790;2022-09-09T07:55:22;5.60;;;1.48;;
62256;SDS011;48240;52.962;5.790;2022-09-09T07:57:50;4.05;;;1.25;;
62256;SDS011;48240;52.962;5.790;2022-09-09T08:00:16;4.65;;;1.30;;
62256;SDS011;48240;52.962;5.790;2022-09-09T08:02:44;5.88;;;1.45;;
62256;SDS011;48240;52.962;5.790;2022-09-09T08:05:11;4.47;;;1.00;;
62256;SDS011;48240;52.962;5.790;2022-09-09T08:07:38;7.45;;;1.30;;
62256;SDS011;48240;52.962;5.790;2022-09-09T08:10:04;4.53;;;1.08;;
62256;SDS011;48240;52.962;5.790;2022-09-09T08:12:31;8.05;;;1.25;;
62256;SDS011;48240;52.962;5.790;2022-09-09T08:14:57;4.25;;;1.25;;
62256;SDS011;48240;52.962;5.790;2022-09-09T08:17:23;9.70;;;1.45;;
62256;SDS011;48240;52.962;5.790;2022-09-09T08:19:49;5.22;;;1.60;;
62256;SDS011;48240;52.962;5.790;2022-09-09T08:22:15;4.15;;;1.30;;
62256;SDS011;48240;52.962;5.790;2022-09-09T08:24:41;4.15;;;1.35;;
62256;SDS011;48240;52.962;5.790;2022-09-09T08:27:08;4.95;;;1.70;;
62256;SDS011;48240;52.962;5.790;2022-09-09T08:29:35;4.90;;;1.40;;
62256;SDS011;48240;52.962;5.790;2022-09-09T08:32:02;4.68;;;1.40;;
62256;SDS011;48240;52.962;5.790;2022-09-09T08:34:29;5.25;;;1.40;;
62256;SDS011;48240;52.962;5.790;2022-09-09T08:36:56;7.50;;;1.70;;
62256;SDS011;48240;52.962;5.790;2022-09-09T08:39:22;7.65;;;1.83;;
62256;SDS011;48240;52.962;5.790;2022-09-09T08:57:42;4.60;;;1.67;;
62256;SDS011;48240;52.962;5.790;2022-09-09T09:00:09;8.98;;;1.58;;
62256;SDS011;48240;52.962;5.790;2022-09-09T09:07:53;7.13;;;1.70;;
62256;SDS011;48240;52.962;5.790;2022-09-09T09:12:47;7.75;;;1.65;;
62256;SDS011;48240;52.962;5.790;2022-09-09T09:15:16;5.18;;;1.50;;
62256;SDS011;48240;52.962;5.790;2022-09-09T09:17:43;5.03;;;1.50;;
62256;SDS011;48240;52.962;5.790;2022-09-09T09:20:16;6.70;;;1.65;;
62256;SDS011;48240;52.962;5.790;2022-09-09T09:22:50;5.10;;;1.67;;
62256;SDS011;48240;52.962;5.790;2022-09-09T09:25:22;6.20;;;1.58;;
62256;SDS011;48240;52.962;5.790;2022-09-09T09:30:15;4.43;;;1.50;;
62256;SDS011;48240;52.962;5.790;2022-09-09T09:32:44;5.82;;;1.38;;
62256;SDS011;48240;52.962;5.790;2022-09-09T09:35:13;5.20;;;1.10;;
62256;SDS011;48240;52.962;5.790;2022-09-09T09:37:39;6.45;;;1.73;;
62256;SDS011;48240;52.962;5.790;2022-09-09T09:40:13;4.05;;;1.52;;
62256;SDS011;48240;52.962;5.790;2022-09-09T09:42:51;7.07;;;1.35;;
62256;SDS011;48240;52.962;5.790;2022-09-09T09:45:28;4.70;;;1.23;;
62256;SDS011;48240;52.962;5.790;2022-09-09T09:48:03;4.85;;;1.30;;
62256;SDS011;48240;52.962;5.790;2022-09-09T09:50:31;5.68;;;1.50;;
62256;SDS011;48240;52.962;5.790;2022-09-09T09:52:58;7.18;;;1.20;;
62256;SDS011;48240;52.962;5.790;2022-09-09T09:55:25;5.28;;;1.40;;
62256;SDS011;48240;52.962;5.790;2022-09-09T09:57:52;6.22;;;1.60;;
62256;SDS011;48240;52.962;5.790;2022-09-09T10:00:22;3.25;;;1.23;;
62256;SDS011;48240;52.962;5.790;2022-09-09T10:02:49;5.55;;;1.35;;
62256;SDS011;48240;52.962;5.790;2022-09-09T10:07:46;5.18;;;1.20;;
62256;SDS011;48240;52.962;5.790;2022-09-09T10:10:15;3.38;;;1.30;;
62256;SDS011;48240;52.962;5.790;2022-09-09T10:15:29;5.72;;;1.30;;
62256;SDS011;48240;52.962;5.790;2022-09-09T10:18:04;6.03;;;1.85;;
62256;SDS011;48240;52.962;5.790;2022-09-09T10:20:43;5.95;;;1.30;;
62256;SDS011;48240;52.962;5.790;2022-09-09T10:31:28;5.95;;;1.38;;
62256;SDS011;48240;52.962;5.790;2022-09-09T10:36:26;5.53;;;1.33;;
62256;SDS011;48240;52.962;5.790;2022-09-09T10:39:00;4.45;;;1.58;;
62256;SDS011;48240;52.962;5.790;2022-09-09T10:46:45;5.57;;;1.42;;
62256;SDS011;48240;52.962;5.790;2022-09-09T10:57:02;7.90;;;1.42;;
62256;SDS011;48240;52.962;5.790;2022-09-09T10:59:31;4.75;;;1.25;;
62256;SDS011;48240;52.962;5.790;2022-09-09T11:02:45;4.68;;;1.40;;
62256;SDS011;48240;52.962;5.790;2022-09-09T11:04:58;7.00;;;1.88;;
62256;SDS011;48240;52.962;5.790;2022-09-09T11:13:21;3.88;;;1.33;;
62256;SDS011;48240;52.962;5.790;2022-09-09T11:15:52;7.43;;;1.58;;
62256;SDS011;48240;52.962;5.790;2022-09-09T11:18:19;4.78;;;1.50;;
62256;SDS011;48240;52.962;5.790;2022-09-09T11:20:50;6.82;;;1.70;;
62256;SDS011;48240;52.962;5.790;2022-09-09T11:23:24;8.35;;;1.88;;
62256;SDS011;48240;52.962;5.790;2022-09-09T11:25:56;5.10;;;1.70;;
62256;SDS011;48240;52.962;5.790;2022-09-09T11:31:13;5.40;;;1.65;;
62256;SDS011;48240;52.962;5.790;2022-09-09T11:41:44;9.40;;;1.77;;
62256;SDS011;48240;52.962;5.790;2022-09-09T11:44:17;4.68;;;1.30;;
62256;SDS011;48240;52.962;5.790;2022-09-09T11:46:44;6.85;;;1.48;;
62256;SDS011;48240;52.962;5.790;2022-09-09T11:51:53;6.25;;;1.70;;
62256;SDS011;48240;52.962;5.790;2022-09-09T11:54:44;5.57;;;1.50;;
62256;SDS011;48240;52.962;5.790;2022-09-09T11:57:23;4.47;;;1.35;;
62256;SDS011;48240;52.962;5.790;2022-09-09T11:59:51;5.47;;;1.50;;
62256;SDS011;48240;52.962;5.790;2022-09-09T12:02:27;7.00;;;1.98;;
62256;SDS011;48240;52.962;5.790;2022-09-09T12:07:32;4.45;;;1.48;;
62256;SDS011;48240;52.962;5.790;2022-09-09T12:12:44;5.72;;;1.20;;
62256;SDS011;48240;52.962;5.790;2022-09-09T12:17:58;5.72;;;1.35;;
62256;SDS011;48240;52.962;5.790;2022-09-09T12:20:31;3.13;;;1.27;;
62256;SDS011;48240;52.962;5.790;2022-09-09T12:25:46;5.70;;;1.50;;
62256;SDS011;48240;52.962;5.790;2022-09-09T12:28:21;6.82;;;1.23;;
62256;SDS011;48240;52.962;5.790;2022-09-09T12:33:16;5.68;;;1.50;;
62256;SDS011;48240;52.962;5.790;2022-09-09T12:35:43;3.90;;;1.25;;
62256;SDS011;48240;52.962;5.790;2022-09-09T12:38:12;4.68;;;1.13;;
62256;SDS011;48240;52.962;5.790;2022-09-09T12:40:39;4.45;;;1.10;;
62256;SDS011;48240;52.962;5.790;2022-09-09T12:43:20;5.35;;;1.55;;
62256;SDS011;48240;52.962;5.790;2022-09-09T12:45:46;7.77;;;1.43;;
62256;SDS011;48240;52.962;5.790;2022-09-09T12:48:15;5.82;;;1.50;;
62256;SDS011;48240;52.962;5.790;2022-09-09T12:50:43;8.57;;;1.88;;
62256;SDS011;48240;52.962;5.790;2022-09-09T12:55:49;6.40;;;1.50;;
62256;SDS011;48240;52.962;5.790;2022-09-09T12:58:16;5.32;;;1.35;;
62256;SDS011;48240;52.962;5.790;2022-09-09T13:00:49;6.75;;;1.30;;
62256;SDS011;48240;52.962;5.790;2022-09-09T13:03:18;6.30;;;1.40;;
62256;SDS011;48240;52.962;5.790;2022-09-09T13:05:45;7.15;;;1.40;;
62256;SDS011;48240;52.962;5.790;2022-09-09T13:08:12;4.95;;;1.45;;
62256;SDS011;48240;52.962;5.790;2022-09-09T13:13:22;6.45;;;1.05;;
62256;SDS011;48240;52.962;5.790;2022-09-09T13:15:55;5.40;;;1.45;;
62256;SDS011;48240;52.962;5.790;2022-09-09T13:18:27;6.70;;;1.50;;
62256;SDS011;48240;52.962;5.790;2022-09-09T13:20:54;5.75;;;1.42;;
62256;SDS011;48240;52.962;5.790;2022-09-09T13:23:23;4.45;;;1.30;;
62256;SDS011;48240;52.962;5.790;2022-09-09T13:25:54;5.88;;;1.60;;
62256;SDS011;48240;52.962;5.790;2022-09-09T13:28:21;4.53;;;1.13;;
62256;SDS011;48240;52.962;5.790;2022-09-09T13:30:58;4.38;;;1.25;;
62256;SDS011;48240;52.962;5.790;2022-09-09T13:33:35;6.45;;;1.20;;
62256;SDS011;48240;52.962;5.790;2022-09-09T13:38:29;2.05;;;1.00;;
62256;SDS011;48240;52.962;5.790;2022-09-09T13:41:05;2.38;;;1.00;;
62256;SDS011;48240;52.962;5.790;2022-09-09T13:43:36;4.32;;;1.00;;
62256;SDS011;48240;52.962;5.790;2022-09-09T13:46:22;3.53;;;1.13;;
62256;SDS011;48240;52.962;5.790;2022-09-09T13:48:56;4.50;;;1.05;;
62256;SDS011;48240;52.962;5.790;2022-09-09T13:51:45;5.20;;;0.88;;
62256;SDS011;48240;52.962;5.790;2022-09-09T13:54:12;3.70;;;1.00;;
62256;SDS011;48240;52.962;5.790;2022-09-09T13:56:39;1.98;;;1.00;;
62256;SDS011;48240;52.962;5.790;2022-09-09T13:59:06;2.72;;;1.10;;
62256;SDS011;48240;52.962;5.790;2022-09-09T14:01:33;2.63;;;1.15;;
62256;SDS011;48240;52.962;5.790;2022-09-09T14:03:59;3.00;;;0.95;;
62256;SDS011;48240;52.962;5.790;2022-09-09T14:06:26;5.50;;;1.30;;
62256;SDS011;48240;52.962;5.790;2022-09-09T14:08:52;3.33;;;0.85;;
62256;SDS011;48240;52.962;5.790;2022-09-09T14:11:19;3.08;;;1.10;;
62256;SDS011;48240;52.962;5.790;2022-09-09T14:13:46;2.38;;;0.90;;
62256;SDS011;48240;52.962;5.790;2022-09-09T14:16:15;4.00;;;1.00;;
62256;SDS011;48240;52.962;5.790;2022-09-09T14:18:41;4.57;;;1.10;;
62256;SDS011;48240;52.962;5.790;2022-09-09T14:21:09;5.43;;;1.05;;
62256;SDS011;48240;52.962;5.790;2022-09-09T14:23:36;5.28;;;1.13;;
62256;SDS011;48240;52.962;5.790;2022-09-09T14:26:03;2.35;;;1.02;;
62256;SDS011;48240;52.962;5.790;2022-09-09T14:28:29;10.00;;;1.05;;
62256;SDS011;48240;52.962;5.790;2022-09-09T14:30:58;4.28;;;0.95;;
62256;SDS011;48240;52.962;5.790;2022-09-09T14:33:24;3.53;;;1.00;;
62256;SDS011;48240;52.962;5.790;2022-09-09T14:35:55;2.78;;;0.90;;
62256;SDS011;48240;52.962;5.790;2022-09-09T14:38:21;3.58;;;0.95;;
62256;SDS011;48240;52.962;5.790;2022-09-09T14:40:47;6.03;;;1.38;;
62256;SDS011;48240;52.962;5.790;2022-09-09T14:43:13;3.65;;;1.00;;
62256;SDS011;48240;52.962;5.790;2022-09-09T14:45:39;3.17;;;1.08;;
62256;SDS011;48240;52.962;5.790;2022-09-09T14:48:05;3.63;;;1.00;;
62256;SDS011;48240;52.962;5.790;2022-09-09T14:50:32;5.80;;;1.10;;
62256;SDS011;48240;52.962;5.790;2022-09-09T14:52:59;6.25;;;1.08;;
62256;SDS011;48240;52.962;5.790;2022-09-09T14:55:25;3.90;;;1.30;;
62256;SDS011;48240;52.962;5.790;2022-09-09T14:57:54;5.18;;;1.02;;
62256;SDS011;48240;52.962;5.790;2022-09-09T15:00:20;3.83;;;1.10;;
62256;SDS011;48240;52.962;5.790;2022-09-09T15:02:46;5.32;;;0.98;;
62256;SDS011;48240;52.962;5.790;2022-09-09T15:05:12;5.03;;;0.93;;
62256;SDS011;48240;52.962;5.790;2022-09-09T15:07:40;3.60;;;1.02;;
62256;SDS011;48240;52.962;5.790;2022-09-09T15:10:06;4.80;;;1.17;;
62256;SDS011;48240;52.962;5.790;2022-09-09T15:12:32;5.35;;;0.90;;
62256;SDS011;48240;52.962;5.790;2022-09-09T15:15:00;3.67;;;1.20;;
62256;SDS011;48240;52.962;5.790;2022-09-09T15:17:26;7.18;;;2.17;;
62256;SDS011;48240;52.962;5.790;2022-09-09T15:19:52;13.32;;;2.83;;
62256;SDS011;48240;52.962;5.790;2022-09-09T15:22:19;13.25;;;2.63;;
62256;SDS011;48240;52.962;5.790;2022-09-09T15:24:45;12.25;;;3.20;;
62256;SDS011;48240;52.962;5.790;2022-09-09T15:27:12;16.23;;;3.22;;
62256;SDS011;48240;52.962;5.790;2022-09-09T15:29:39;12.43;;;2.90;;
62256;SDS011;48240;52.962;5.790;2022-09-09T15:32:06;10.13;;;2.83;;
62256;SDS011;48240;52.962;5.790;2022-09-09T15:34:32;12.90;;;3.05;;
62256;SDS011;48240;52.962;5.790;2022-09-09T15:36:58;16.27;;;3.05;;
62256;SDS011;48240;52.962;5.790;2022-09-09T15:39:25;14.13;;;2.88;;
62256;SDS011;48240;52.962;5.790;2022-09-09T15:41:51;10.07;;;2.88;;
62256;SDS011;48240;52.962;5.790;2022-09-09T15:44:18;11.38;;;2.65;;
62256;SDS011;48240;52.962;5.790;2022-09-09T15:46:45;15.02;;;3.10;;
62256;SDS011;48240;52.962;5.790;2022-09-09T15:49:12;13.02;;;3.35;;
62256;SDS011;48240;52.962;5.790;2022-09-09T15:51:40;13.27;;;2.75;;
62256;SDS011;48240;52.962;5.790;2022-09-09T15:54:07;10.02;;;3.10;;
62256;SDS011;48240;52.962;5.790;2022-09-09T15:56:33;10.40;;;2.53;;
62256;SDS011;48240;52.962;5.790;2022-09-09T15:59:00;11.85;;;2.92;;
62256;SDS011;48240;52.962;5.790;2022-09-09T16:01:28;8.60;;;2.40;;
62256;SDS011;48240;52.962;5.790;2022-09-09T16:03:56;11.13;;;2.95;;
62256;SDS011;48240;52.962;5.790;2022-09-09T16:06:23;11.95;;;2.97;;
62256;SDS011;48240;52.962;5.790;2022-09-09T16:08:50;15.02;;;3.03;;
62256;SDS011;48240;52.962;5.790;2022-09-09T16:11:21;13.20;;;2.90;;
62256;SDS011;48240;52.962;5.790;2022-09-09T16:13:49;7.60;;;2.38;;
62256;SDS011;48240;52.962;5.790;2022-09-09T16:16:16;8.40;;;2.53;;
62256;SDS011;48240;52.962;5.790;2022-09-09T16:18:43;9.65;;;2.33;;
62256;SDS011;48240;52.962;5.790;2022-09-09T16:21:15;10.07;;;2.50;;
62256;SDS011;48240;52.962;5.790;2022-09-09T16:26:08;9.48;;;3.40;;
62256;SDS011;48240;52.962;5.790;2022-09-09T16:28:36;9.73;;;2.42;;
62256;SDS011;48240;52.962;5.790;2022-09-09T16:31:09;7.65;;;2.28;;
62256;SDS011;48240;52.962;5.790;2022-09-09T16:33:36;12.80;;;2.40;;
62256;SDS011;48240;52.962;5.790;2022-09-09T16:36:09;6.40;;;2.53;;
62256;SDS011;48240;52.962;5.790;2022-09-09T16:38:36;8.40;;;2.28;;
62256;SDS011;48240;52.962;5.790;2022-09-09T16:41:03;12.77;;;2.80;;
62256;SDS011;48240;52.962;5.790;2022-09-09T16:43:31;9.98;;;2.40;;
62256;SDS011;48240;52.962;5.790;2022-09-09T16:45:57;8.20;;;2.40;;
62256;SDS011;48240;52.962;5.790;2022-09-09T16:48:25;8.00;;;2.00;;
62256;SDS011;48240;52.962;5.790;2022-09-09T16:50:51;7.25;;;2.33;;
62256;SDS011;48240;52.962;5.790;2022-09-09T16:53:18;8.52;;;2.50;;
62256;SDS011;48240;52.962;5.790;2022-09-09T16:55:44;9.30;;;2.45;;
62256;SDS011;48240;52.962;5.790;2022-09-09T16:58:10;9.60;;;2.83;;
62256;SDS011;48240;52.962;5.790;2022-09-09T17:00:36;7.38;;;2.35;;
62256;SDS011;48240;52.962;5.790;2022-09-09T17:03:03;5.22;;;2.00;;
62256;SDS011;48240;52.962;5.790;2022-09-09T17:05:29;6.57;;;2.47;;
62256;SDS011;48240;52.962;5.790;2022-09-09T17:07:55;7.47;;;2.03;;
62256;SDS011;48240;52.962;5.790;2022-09-09T17:10:22;8.10;;;2.00;;
62256;SDS011;48240;52.962;5.790;2022-09-09T17:12:49;6.85;;;2.20;;
62256;SDS011;48240;52.962;5.790;2022-09-09T17:15:15;5.20;;;2.22;;
62256;SDS011;48240;52.962;5.790;2022-09-09T17:17:43;6.82;;;2.00;;
62256;SDS011;48240;52.962;5.790;2022-09-09T17:20:10;8.52;;;2.17;;
62256;SDS011;48240;52.962;5.790;2022-09-09T17:22:37;5.28;;;1.83;;
62256;SDS011;48240;52.962;5.790;2022-09-09T17:25:03;3.80;;;1.70;;
62256;SDS011;48240;52.962;5.790;2022-09-09T17:27:29;4.07;;;1.88;;
62256;SDS011;48240;52.962;5.790;2022-09-09T17:29:56;10.35;;;2.08;;
62256;SDS011;48240;52.962;5.790;2022-09-09T17:32:23;5.30;;;1.80;;
62256;SDS011;48240;52.962;5.790;2022-09-09T17:34:49;4.88;;;1.70;;
62256;SDS011;48240;52.962;5.790;2022-09-09T17:37:17;7.05;;;1.98;;
62256;SDS011;48240;52.962;5.790;2022-09-09T17:39:43;4.22;;;1.73;;
62256;SDS011;48240;52.962;5.790;2022-09-09T17:42:09;9.93;;;1.98;;
62256;SDS011;48240;52.962;5.790;2022-09-09T17:44:35;3.15;;;1.60;;
62256;SDS011;48240;52.962;5.790;2022-09-09T17:47:01;4.78;;;1.80;;
62256;SDS011;48240;52.962;5.790;2022-09-09T17:49:29;5.75;;;2.15;;
62256;SDS011;48240;52.962;5.790;2022-09-09T17:51:55;3.53;;;1.70;;
62256;SDS011;48240;52.962;5.790;2022-09-09T17:54:21;4.93;;;1.60;;
62256;SDS011;48240;52.962;5.790;2022-09-09T17:56:48;3.53;;;1.63;;
62256;SDS011;48240;52.962;5.790;2022-09-09T17:59:15;6.25;;;1.67;;
62256;SDS011;48240;52.962;5.790;2022-09-09T18:01:47;4.05;;;1.65;;
62256;SDS011;48240;52.962;5.790;2022-09-09T18:04:14;2.85;;;1.65;;
62256;SDS011;48240;52.962;5.790;2022-09-09T18:06:48;4.28;;;1.70;;
62256;SDS011;48240;52.962;5.790;2022-09-09T18:09:15;4.82;;;1.65;;
62256;SDS011;48240;52.962;5.790;2022-09-09T18:11:45;12.85;;;2.08;;
62256;SDS011;48240;52.962;5.790;2022-09-09T18:14:19;8.57;;;1.70;;
62256;SDS011;48240;52.962;5.790;2022-09-09T18:16:46;4.47;;;1.80;;
62256;SDS011;48240;52.962;5.790;2022-09-09T18:19:13;2.83;;;1.50;;
62256;SDS011;48240;52.962;5.790;2022-09-09T18:21:40;8.40;;;1.80;;
62256;SDS011;48240;52.962;5.790;2022-09-09T18:24:07;8.30;;;2.10;;
62256;SDS011;48240;52.962;5.790;2022-09-09T18:26:35;7.30;;;1.63;;
62256;SDS011;48240;52.962;5.790;2022-09-09T18:29:04;5.85;;;1.73;;
62256;SDS011;48240;52.962;5.790;2022-09-09T18:31:30;3.65;;;1.73;;
62256;SDS011;48240;52.962;5.790;2022-09-09T18:33:58;10.55;;;1.80;;
62256;SDS011;48240;52.962;5.790;2022-09-09T18:36:26;7.78;;;1.60;;
62256;SDS011;48240;52.962;5.790;2022-09-09T18:38:52;4.70;;;1.60;;
62256;SDS011;48240;52.962;5.790;2022-09-09T18:41:21;7.30;;;1.75;;
62256;SDS011;48240;52.962;5.790;2022-09-09T18:43:52;6.38;;;1.50;;
62256;SDS011;48240;52.962;5.790;2022-09-09T18:46:19;6.65;;;1.70;;
62256;SDS011;48240;52.962;5.790;2022-09-09T18:48:46;4.20;;;1.50;;
62256;SDS011;48240;52.962;5.790;2022-09-09T18:51:15;3.03;;;1.70;;
62256;SDS011;48240;52.962;5.790;2022-09-09T18:53:41;5.93;;;1.58;;
62256;SDS011;48240;52.962;5.790;2022-09-09T18:56:09;4.78;;;1.35;;
62256;SDS011;48240;52.962;5.790;2022-09-09T18:58:36;5.47;;;1.40;;
62256;SDS011;48240;52.962;5.790;2022-09-09T19:01:03;3.95;;;1.58;;
62256;SDS011;48240;52.962;5.790;2022-09-09T19:03:33;8.52;;;1.77;;
62256;SDS011;48240;52.962;5.790;2022-09-09T19:06:09;5.40;;;1.65;;
62256;SDS011;48240;52.962;5.790;2022-09-09T19:08:37;3.88;;;1.80;;
62256;SDS011;48240;52.962;5.790;2022-09-09T19:11:03;6.50;;;1.90;;
62256;SDS011;48240;52.962;5.790;2022-09-09T19:13:30;7.15;;;1.60;;
62256;SDS011;48240;52.962;5.790;2022-09-09T19:16:06;3.63;;;1.80;;
62256;SDS011;48240;52.962;5.790;2022-09-09T19:18:33;5.05;;;1.88;;
62256;SDS011;48240;52.962;5.790;2022-09-09T19:21:17;3.85;;;1.65;;
62256;SDS011;48240;52.962;5.790;2022-09-09T19:23:47;5.60;;;1.90;;
62256;SDS011;48240;52.962;5.790;2022-09-09T19:26:13;3.63;;;1.75;;
62256;SDS011;48240;52.962;5.790;2022-09-09T19:28:43;4.82;;;1.90;;
62256;SDS011;48240;52.962;5.790;2022-09-09T19:31:14;3.42;;;1.83;;
62256;SDS011;48240;52.962;5.790;2022-09-09T19:33:42;3.78;;;1.70;;
62256;SDS011;48240;52.962;5.790;2022-09-09T19:36:11;6.78;;;1.70;;
62256;SDS011;48240;52.962;5.790;2022-09-09T19:38:37;6.90;;;1.77;;
62256;SDS011;48240;52.962;5.790;2022-09-09T19:41:09;6.65;;;2.08;;
62256;SDS011;48240;52.962;5.790;2022-09-09T19:43:36;3.35;;;1.52;;
62256;SDS011;48240;52.962;5.790;2022-09-09T19:46:03;6.63;;;1.70;;
62256;SDS011;48240;52.962;5.790;2022-09-09T19:48:34;3.53;;;1.90;;
62256;SDS011;48240;52.962;5.790;2022-09-09T19:51:02;3.85;;;1.73;;
62256;SDS011;48240;52.962;5.790;2022-09-09T19:53:29;4.50;;;2.00;;
62256;SDS011;48240;52.962;5.790;2022-09-09T19:55:55;3.67;;;1.60;;
62256;SDS011;48240;52.962;5.790;2022-09-09T19:58:21;5.38;;;2.00;;
62256;SDS011;48240;52.962;5.790;2022-09-09T20:00:47;3.75;;;1.90;;
62256;SDS011;48240;52.962;5.790;2022-09-09T20:03:14;3.42;;;1.73;;
62256;SDS011;48240;52.962;5.790;2022-09-09T20:05:40;3.55;;;1.80;;
62256;SDS011;48240;52.962;5.790;2022-09-09T20:08:06;7.13;;;1.95;;
62256;SDS011;48240;52.962;5.790;2022-09-09T20:10:32;4.55;;;2.00;;
62256;SDS011;48240;52.962;5.790;2022-09-09T20:12:58;6.00;;;1.80;;
62256;SDS011;48240;52.962;5.790;2022-09-09T20:15:25;4.30;;;1.90;;
62256;SDS011;48240;52.962;5.790;2022-09-09T20:17:51;3.58;;;1.90;;
62256;SDS011;48240;52.962;5.790;2022-09-09T20:20:18;4.95;;;1.83;;
62256;SDS011;48240;52.962;5.790;2022-09-09T20:22:44;7.22;;;2.22;;
62256;SDS011;48240;52.962;5.790;2022-09-09T20:25:11;9.20;;;2.05;;
62256;SDS011;48240;52.962;5.790;2022-09-09T20:27:39;6.15;;;2.03;;
62256;SDS011;48240;52.962;5.790;2022-09-09T20:30:05;5.65;;;2.30;;
62256;SDS011;48240;52.962;5.790;2022-09-09T20:32:32;7.85;;;2.28;;
62256;SDS011;48240;52.962;5.790;2022-09-09T20:34:58;5.60;;;2.00;;
62256;SDS011;48240;52.962;5.790;2022-09-09T20:37:24;5.78;;;2.10;;
62256;SDS011;48240;52.962;5.790;2022-09-09T20:39:50;5.00;;;1.95;;
62256;SDS011;48240;52.962;5.790;2022-09-09T20:42:16;5.82;;;2.13;;
62256;SDS011;48240;52.962;5.790;2022-09-09T20:44:44;4.70;;;1.90;;
62256;SDS011;48240;52.962;5.790;2022-09-09T20:47:10;3.65;;;1.85;;
62256;SDS011;48240;52.962;5.790;2022-09-09T20:49:37;3.90;;;2.05;;